Time;durP1;ratioP1;P1;durP2;ratioP2;P2;SDS_P1;SDS_P2;PMS_P1;PMS_P2;Temp;Humidity;BMP_temperature;BMP_pressure;BME280_temperature;BME280_humidity;BME280_pressure;Samples;Min_cycle;Max_cycle;Signal;HPM_P1;HPM_P2
2021/10/28 00:13:30;;;;;;;25.73;10.73;;;9.70;98.00;;;;;;4970455;28;20074;-80
2021/10/28 00:15:57;;;;;;;21.88;10.98;;;9.70;98.10;;;;;;4961633;28;20062;-80
2021/10/28 00:18:39;;;;;;;22.90;11.48;;;9.80;98.30;;;;;;4959363;28;20057;-80
2021/10/28 00:21:06;;;;;;;20.83;11.45;;;9.90;98.20;;;;;;4975532;28;20045;-80
2021/10/28 00:23:36;;;;;;;22.92;11.38;;;9.70;98.10;;;;;;4960943;28;20031;-79
2021/10/28 00:26:01;;;;;;;22.27;11.43;;;9.70;98.10;;;;;;4977631;28;20054;-80
2021/10/28 00:28:27;;;;;;;19.48;11.23;;;9.80;98.20;;;;;;4957451;28;20022;-79
2021/10/28 00:30:52;;;;;;;21.83;11.07;;;9.80;98.10;;;;;;4961278;28;20447;-79
2021/10/28 00:33:18;;;;;;;21.40;11.70;;;9.70;98.00;;;;;;4979466;28;20326;-80
2021/10/28 00:35:44;;;;;;;21.55;12.52;;;9.70;98.20;;;;;;4956866;28;20045;-79
2021/10/28 00:38:10;;;;;;;27.55;12.95;;;9.80;98.10;;;;;;4960576;28;20049;-80
2021/10/28 00:40:35;;;;;;;24.52;12.48;;;9.80;98.20;;;;;;4980154;28;20031;-80
2021/10/28 00:43:01;;;;;;;27.23;13.07;;;9.80;98.10;;;;;;4970943;28;20031;-79
2021/10/28 00:45:27;;;;;;;27.40;13.13;;;9.70;98.00;;;;;;4979747;28;20030;-80
2021/10/28 00:47:52;;;;;;;28.95;14.25;;;9.60;98.00;;;;;;4971496;28;20110;-80
2021/10/28 00:50:18;;;;;;;22.58;14.00;;;9.60;98.20;;;;;;4962488;28;20039;-79
2021/10/28 00:52:43;;;;;;;26.90;13.32;;;9.80;98.20;;;;;;4954269;28;20038;-80
2021/10/28 00:55:09;;;;;;;23.58;13.57;;;9.70;98.10;;;;;;4975823;28;20031;-80
2021/10/28 00:57:35;;;;;;;30.35;14.02;;;9.60;98.10;;;;;;4972524;28;20054;-80
2021/10/28 01:00:04;;;;;;;23.67;13.55;;;9.70;98.10;;;;;;4968964;28;20464;-80
2021/10/28 01:02:30;;;;;;;25.88;14.02;;;9.50;98.00;;;;;;4979372;28;20061;-79
2021/10/28 01:04:56;;;;;;;29.95;13.98;;;9.60;98.30;;;;;;4977378;28;20031;-80
2021/10/28 01:07:22;;;;;;;23.42;14.23;;;9.70;98.40;;;;;;4969771;28;20031;-80
2021/10/28 01:09:47;;;;;;;27.08;14.35;;;9.60;98.20;;;;;;4958333;28;20026;-79
2021/10/28 01:12:13;;;;;;;22.25;13.32;;;9.50;98.10;;;;;;4961125;28;20027;-79
2021/10/28 01:14:44;;;;;;;26.77;14.32;;;9.40;98.20;;;;;;4972990;28;20027;-80
2021/10/28 01:17:10;;;;;;;28.55;14.48;;;9.30;98.30;;;;;;4979652;28;20050;-79
2021/10/28 01:19:37;;;;;;;26.73;15.05;;;9.30;98.50;;;;;;4975894;28;20042;-80
2021/10/28 01:22:03;;;;;;;24.38;14.27;;;9.20;98.40;;;;;;4958377;28;20035;-79
2021/10/28 01:24:28;;;;;;;31.17;15.20;;;9.20;98.50;;;;;;4976411;28;20026;-80
2021/10/28 01:27:04;;;;;;;31.67;16.00;;;9.30;98.70;;;;;;4956349;28;20027;-80
2021/10/28 01:29:31;;;;;;;35.45;16.55;;;9.30;98.80;;;;;;4957295;28;20118;-79
2021/10/28 01:31:57;;;;;;;35.10;17.02;;;9.20;98.70;;;;;;4957865;28;20031;-80
2021/10/28 01:34:22;;;;;;;30.27;16.63;;;9.20;98.80;;;;;;4977649;28;20034;-79
2021/10/28 01:36:48;;;;;;;33.08;15.90;;;9.30;98.90;;;;;;4960600;28;20073;-80
2021/10/28 01:39:18;;;;;;;35.58;17.45;;;9.20;98.90;;;;;;4964262;28;20034;-80
2021/10/28 01:41:44;;;;;;;35.78;17.63;;;9.20;98.90;;;;;;4952476;28;20447;-79
2021/10/28 01:44:09;;;;;;;35.80;16.77;;;9.10;98.80;;;;;;4975426;28;20035;-79
2021/10/28 01:46:35;;;;;;;32.13;16.20;;;9.20;99.00;;;;;;4972779;28;20031;-80
2021/10/28 01:49:00;;;;;;;32.53;16.50;;;9.10;98.80;;;;;;4960886;28;20045;-79
2021/10/28 01:51:26;;;;;;;33.00;16.83;;;9.10;98.90;;;;;;4979962;28;20086;-80
2021/10/28 01:53:52;;;;;;;38.17;17.75;;;9.10;98.90;;;;;;4977552;28;20042;-80
2021/10/28 01:56:17;;;;;;;32.00;17.48;;;9.10;99.00;;;;;;4964400;28;20034;-80
2021/10/28 01:58:43;;;;;;;37.92;18.20;;;9.00;99.00;;;;;;4964858;28;20034;-80
2021/10/28 02:01:09;;;;;;;41.45;17.45;;;9.00;98.90;;;;;;4974293;28;20119;-79
2021/10/28 02:03:35;;;;;;;36.65;16.95;;;9.00;99.10;;;;;;4959485;28;20026;-80
2021/10/28 02:06:01;;;;;;;37.53;18.02;;;9.00;99.10;;;;;;4953758;28;20034;-80
2021/10/28 02:08:27;;;;;;;39.60;18.45;;;9.00;99.10;;;;;;4958181;28;20082;-79
2021/10/28 02:10:53;;;;;;;44.28;17.70;;;9.00;99.20;;;;;;4969961;28;20493;-80
2021/10/28 02:13:20;;;;;;;38.88;17.90;;;9.00;99.20;;;;;;4955662;28;20061;-80
2021/10/28 02:15:45;;;;;;;38.42;18.52;;;8.90;99.20;;;;;;4982373;28;20023;-79
2021/10/28 02:18:12;;;;;;;36.40;18.27;;;8.80;99.20;;;;;;4960227;28;20065;-80
2021/10/28 02:20:41;;;;;;;44.60;18.42;;;8.80;99.30;;;;;;4980700;28;20099;-80
2021/10/28 02:23:07;;;;;;;42.97;18.20;;;8.90;99.30;;;;;;4953405;28;20429;-80
2021/10/28 02:25:33;;;;;;;41.88;19.60;;;8.80;99.30;;;;;;4962008;28;20031;-80
2021/10/28 02:27:59;;;;;;;47.47;20.88;;;8.80;99.30;;;;;;4977219;28;20448;-80
2021/10/28 02:30:26;;;;;;;43.80;19.48;;;8.90;99.40;;;;;;4969365;28;20061;-80
2021/10/28 02:32:52;;;;;;;49.00;21.90;;;8.90;99.30;;;;;;4955566;28;20038;-78
2021/10/28 02:35:18;;;;;;;46.83;20.60;;;8.80;99.30;;;;;;4956682;28;20038;-79
2021/10/28 02:37:45;;;;;;;39.90;20.33;;;8.80;99.40;;;;;;4963989;28;20027;-80
2021/10/28 02:40:11;;;;;;;49.42;20.63;;;8.80;99.40;;;;;;4978311;28;20027;-80
2021/10/28 02:42:37;;;;;;;45.08;19.75;;;8.80;99.40;;;;;;4974184;28;20535;-80
2021/10/28 02:45:04;;;;;;;49.28;20.58;;;8.80;99.40;;;;;;4982731;28;20026;-80
2021/10/28 02:47:30;;;;;;;53.05;20.35;;;8.80;99.50;;;;;;4966067;28;20023;-80
2021/10/28 02:49:55;;;;;;;44.13;19.73;;;8.90;99.60;;;;;;4970752;28;20035;-79
2021/10/28 02:52:21;;;;;;;44.60;18.90;;;8.90;99.50;;;;;;4974536;28;20035;-79
2021/10/28 02:54:46;;;;;;;52.40;21.08;;;8.80;99.40;;;;;;4954430;28;20073;-80
2021/10/28 02:57:12;;;;;;;45.40;20.35;;;8.80;99.40;;;;;;4976696;28;20098;-80
2021/10/28 02:59:37;;;;;;;51.72;20.08;;;8.90;99.50;;;;;;4963418;28;20043;-78
2021/10/28 03:02:03;;;;;;;46.63;20.10;;;8.80;99.40;;;;;;4968401;28;20023;-80
2021/10/28 03:04:29;;;;;;;46.80;19.83;;;8.80;99.40;;;;;;4974595;28;20030;-79
2021/10/28 03:09:33;;;;;;;55.20;19.50;;;8.80;99.40;;;;;;4985532;23;20058;-87
2021/10/28 03:12:03;;;;;;;50.45;20.73;;;8.70;99.40;;;;;;4955395;28;20030;-89
2021/10/28 03:14:52;;;;;;;46.25;19.65;;;8.80;99.50;;;;;;4938176;28;20090;-89
2021/10/28 03:26:15;;;;;;;42.92;18.55;;;8.70;99.30;;;;;;4941151;28;20008;-90
2021/10/28 03:28:46;;;;;;;50.15;19.95;;;8.70;99.50;;;;;;4949696;28;20066;-89
2021/10/28 03:31:12;;;;;;;;;;;8.70;99.40;;;;;;4957143;28;20027;-87
2021/10/28 03:33:49;;;;;;;53.35;20.10;;;8.70;99.50;;;;;;4959182;28;19910;-89
2021/10/28 03:36:26;;;;;;;43.65;20.15;;;8.70;99.50;;;;;;4956523;28;20026;-89
2021/10/28 03:54:03;;;;;;;53.55;21.05;;;8.70;99.50;;;;;;4972674;28;20052;-90
2021/10/28 04:19:43;;;;;;;52.00;19.83;;;8.50;99.30;;;;;;4960523;28;20513;-65
2021/10/28 04:30:22;;;;;;;44.33;17.98;;;8.50;99.50;;;;;;4952634;28;20051;-65
2021/10/28 04:32:49;;;;;;;50.58;18.65;;;8.50;99.30;;;;;;4959115;28;20031;-64
2021/10/28 04:35:15;;;;;;;43.33;17.88;;;8.50;99.50;;;;;;4954965;28;20153;-66
2021/10/28 04:37:43;;;;;;;42.05;18.30;;;8.50;99.40;;;;;;4955098;28;20110;-66
2021/10/28 04:40:09;;;;;;;42.25;17.13;;;8.50;99.30;;;;;;4958341;28;20839;-64
2021/10/28 04:42:35;;;;;;;37.70;16.30;;;8.40;99.30;;;;;;4937759;28;20035;-66
2021/10/28 04:45:01;;;;;;;46.05;17.08;;;8.40;99.30;;;;;;4956268;28;20071;-64
2021/10/28 04:47:27;;;;;;;37.85;16.45;;;8.40;99.50;;;;;;4956303;28;20403;-65
2021/10/28 04:49:52;;;;;;;41.60;16.00;;;8.30;99.30;;;;;;4932346;28;20480;-64
2021/10/28 04:52:20;;;;;;;34.60;16.00;;;8.30;99.40;;;;;;4938102;28;20039;-64
2021/10/28 04:54:46;;;;;;;32.17;14.98;;;8.20;99.40;;;;;;4963670;28;20445;-64
2021/10/28 04:57:11;;;;;;;38.83;16.70;;;8.20;99.50;;;;;;4953224;28;20108;-64
2021/10/28 04:59:37;;;;;;;40.85;16.60;;;8.30;99.50;;;;;;4949076;28;20541;-64
2021/10/28 05:02:03;;;;;;;38.92;16.23;;;8.30;99.50;;;;;;4952198;28;20054;-64
2021/10/28 05:04:28;;;;;;;39.05;17.30;;;8.40;99.60;;;;;;4956153;28;20234;-64
2021/10/28 05:06:53;;;;;;;41.90;16.30;;;8.30;99.60;;;;;;4949852;28;20169;-64
2021/10/28 05:09:27;;;;;;;37.33;16.92;;;8.30;99.50;;;;;;4946750;28;20039;-63
2021/10/28 05:11:52;;;;;;;37.05;16.20;;;8.30;99.50;;;;;;4962224;28;20053;-63
2021/10/28 05:14:18;;;;;;;46.50;17.05;;;8.40;99.60;;;;;;4947376;28;20042;-64
2021/10/28 05:16:43;;;;;;;50.03;18.48;;;8.40;99.60;;;;;;4946061;28;20035;-64
2021/10/28 05:19:09;;;;;;;48.03;18.30;;;8.40;99.60;;;;;;4964524;28;20034;-64
2021/10/28 05:21:34;;;;;;;46.03;17.92;;;8.40;99.50;;;;;;4956377;28;20030;-63
2021/10/28 05:24:00;;;;;;;48.88;18.75;;;8.40;99.60;;;;;;4954373;28;20027;-64
2021/10/28 05:26:25;;;;;;;40.92;18.67;;;8.40;99.50;;;;;;4961161;28;20342;-64
2021/10/28 05:28:51;;;;;;;48.00;19.38;;;8.30;99.40;;;;;;4965465;28;20034;-63
2021/10/28 05:31:17;;;;;;;51.63;19.35;;;8.40;99.50;;;;;;4958976;28;20383;-64
2021/10/28 05:33:43;;;;;;;45.35;19.02;;;8.40;99.50;;;;;;4955636;28;20034;-64
2021/10/28 05:36:08;;;;;;;49.00;19.63;;;8.50;99.60;;;;;;4937745;28;20306;-64
2021/10/28 05:38:34;;;;;;;49.25;19.25;;;8.50;99.60;;;;;;4957063;28;20078;-63
2021/10/28 05:40:59;;;;;;;49.70;20.60;;;8.40;99.50;;;;;;4943608;28;20708;-64
2021/10/28 05:43:25;;;;;;;53.88;18.85;;;8.40;99.50;;;;;;4962168;28;20115;-64
2021/10/28 05:45:50;;;;;;;46.42;19.70;;;8.50;99.50;;;;;;4948855;28;20028;-64
2021/10/28 05:48:16;;;;;;;52.03;19.75;;;8.50;99.50;;;;;;4963184;28;20505;-64
2021/10/28 05:50:45;;;;;;;44.67;18.65;;;8.50;99.50;;;;;;4962258;28;20053;-64
2021/10/28 05:53:11;;;;;;;52.22;20.35;;;8.50;99.50;;;;;;4954614;28;20316;-63
2021/10/28 05:55:36;;;;;;;50.65;19.65;;;8.50;99.40;;;;;;4956731;28;20447;-64
2021/10/28 05:58:02;;;;;;;48.83;19.98;;;8.50;99.40;;;;;;4956292;28;20118;-64
2021/10/28 06:00:28;;;;;;;58.08;21.85;;;8.50;99.40;;;;;;4957158;28;20058;-64
2021/10/28 06:02:53;;;;;;;56.80;20.77;;;8.60;99.50;;;;;;4960922;28;20030;-64
2021/10/28 06:05:20;;;;;;;54.72;19.73;;;8.60;99.40;;;;;;4953184;28;20274;-63
2021/10/28 06:07:45;;;;;;;53.70;21.23;;;8.50;99.30;;;;;;4958825;28;20425;-63
2021/10/28 06:10:16;;;;;;;61.97;22.23;;;8.50;99.40;;;;;;4957563;28;20053;-64
2021/10/28 06:12:44;;;;;;;64.90;22.37;;;8.50;99.30;;;;;;4956359;28;20087;-64
2021/10/28 06:15:12;;;;;;;51.70;20.17;;;8.50;99.30;;;;;;4960511;28;20026;-64
2021/10/28 06:17:45;;;;;;;67.38;21.38;;;8.40;99.20;;;;;;4964126;28;20050;-64
2021/10/28 06:20:11;;;;;;;55.20;21.38;;;8.30;99.20;;;;;;4956497;28;20075;-63
2021/10/28 06:22:37;;;;;;;54.05;20.20;;;8.40;99.40;;;;;;4958683;28;20109;-64
2021/10/28 06:25:03;;;;;;;52.58;20.85;;;8.30;99.40;;;;;;4959794;28;20412;-64
2021/10/28 06:27:28;;;;;;;56.00;21.70;;;8.30;99.40;;;;;;4955520;28;20174;-64
2021/10/28 06:29:54;;;;;;;53.53;21.00;;;8.30;99.40;;;;;;4956686;28;20031;-64
2021/10/28 06:32:20;;;;;;;54.33;22.02;;;8.30;99.40;;;;;;4957493;28;20510;-64
2021/10/28 06:34:47;;;;;;;50.30;20.08;;;8.20;99.40;;;;;;4940497;28;20427;-64
2021/10/28 06:37:13;;;;;;;59.95;20.63;;;8.10;99.20;;;;;;4957917;28;20057;-64
2021/10/28 06:39:39;;;;;;;51.55;21.58;;;8.10;99.30;;;;;;4959631;28;20413;-64
2021/10/28 06:42:07;;;;;;;59.72;21.65;;;8.10;99.40;;;;;;4958537;28;20227;-64
2021/10/28 06:44:33;;;;;;;57.80;21.48;;;8.10;99.40;;;;;;4960675;28;20105;-64
2021/10/28 06:46:59;;;;;;;58.80;22.80;;;8.10;99.50;;;;;;4952816;28;20030;-64
2021/10/28 06:49:24;;;;;;;61.67;22.48;;;8.10;99.50;;;;;;4961525;28;20073;-64
2021/10/28 06:51:51;;;;;;;58.45;22.90;;;8.10;99.50;;;;;;4950783;28;20053;-64
2021/10/28 06:54:22;;;;;;;62.78;22.90;;;8.10;99.50;;;;;;4958610;28;20699;-64
2021/10/28 07:04:43;;;;;;;63.42;24.15;;;8.20;99.50;;;;;;4958506;28;20054;-64
2021/10/28 07:07:08;;;;;;;57.00;23.83;;;8.20;99.40;;;;;;4956438;28;20058;-64
2021/10/28 07:09:42;;;;;;;63.53;24.55;;;8.20;99.40;;;;;;4962593;28;20050;-64
2021/10/28 07:12:40;;;;;;;59.10;23.08;;;8.20;99.40;;;;;;4954700;28;20020;-63
2021/10/28 07:14:59;;;;;;;62.65;23.63;;;8.20;99.40;;;;;;4960397;28;20906;-64
2021/10/28 07:25:14;;;;;;;58.47;24.15;;;8.50;99.10;;;;;;4959113;28;20027;-64
2021/10/28 07:33:10;;;;;;;47.65;21.40;;;8.80;98.50;;;;;;4953909;28;20046;-64
2021/10/28 07:55:03;;;;;;;41.13;19.98;;;9.00;97.80;;;;;;4952419;28;20090;-64
2021/10/28 07:57:45;;;;;;;25.27;16.67;;;9.60;96.20;;;;;;4961051;28;20641;-65
2021/10/28 08:17:09;;;;;;;18.73;12.63;;;10.20;94.70;;;;;;4952197;28;20062;-64
2021/10/28 08:22:17;;;;;;;19.67;11.07;;;10.50;94.00;;;;;;4956670;28;20031;-64
2021/10/28 08:30:12;;;;;;;16.08;10.00;;;10.80;93.50;;;;;;4953800;28;20042;-63
2021/10/28 08:32:38;;;;;;;15.93;10.50;;;10.90;93.30;;;;;;4953285;28;20101;-65
2021/10/28 08:35:06;;;;;;;14.57;9.50;;;10.90;92.80;;;;;;4947576;28;20109;-65
2021/10/28 08:37:39;;;;;;;12.35;9.55;;;10.90;92.60;;;;;;4957163;28;20474;-64
2021/10/28 08:40:07;;;;;;;14.93;9.52;;;11.00;92.70;;;;;;4956673;28;20478;-64
2021/10/28 08:42:33;;;;;;;13.02;9.02;;;11.20;92.80;;;;;;4939216;28;20023;-65
2021/10/28 08:44:59;;;;;;;14.38;8.90;;;11.40;92.60;;;;;;4952810;28;20332;-64
2021/10/28 08:47:26;;;;;;;12.55;8.93;;;11.60;92.50;;;;;;4953145;28;20110;-64
2021/10/28 09:25:43;;;;;;;10.10;5.75;;;13.10;87.00;;;;;;4995647;28;20046;-79
2021/10/28 09:28:31;;;;;;;9.18;6.63;;;13.20;86.60;;;;;;4987795;28;20037;-80
2021/10/28 09:31:20;;;;;;;10.05;6.40;;;13.40;87.50;;;;;;4982658;28;20057;-80
2021/10/28 09:47:36;;;;;;;9.75;5.70;;;14.00;85.60;;;;;;4975968;28;20065;-80
2021/10/28 09:50:10;;;;;;;8.50;5.07;;;14.00;84.90;;;;;;4973394;28;20034;-80
2021/10/28 09:52:38;;;;;;;7.38;4.82;;;14.10;84.10;;;;;;4986996;28;20038;-79
2021/10/28 09:58:00;;;;;;;15.65;5.13;;;14.20;83.70;;;;;;4990945;28;20045;-80
2021/10/28 10:00:39;;;;;;;8.55;4.70;;;14.50;83.30;;;;;;4993352;28;20411;-81
2021/10/28 10:03:10;;;;;;;7.97;4.60;;;14.50;83.00;;;;;;4996471;28;20030;-80
2021/10/28 10:05:37;;;;;;;8.93;4.90;;;14.70;82.60;;;;;;4997758;28;20578;-81
2021/10/28 10:08:07;;;;;;;11.48;4.80;;;14.70;82.80;;;;;;4979261;28;20096;-80
2021/10/28 10:10:33;;;;;;;7.57;4.30;;;14.70;82.40;;;;;;4983763;28;20363;-81
2021/10/28 10:13:00;;;;;;;6.90;4.10;;;15.00;83.00;;;;;;4993660;28;20385;-80
2021/10/28 10:15:26;;;;;;;7.45;4.25;;;14.90;81.30;;;;;;4976580;28;20030;-80
2021/10/28 10:17:57;;;;;;;6.40;3.70;;;15.10;82.40;;;;;;4990304;28;20109;-80
2021/10/28 10:20:40;;;;;;;7.63;3.28;;;15.30;81.20;;;;;;5001934;28;20083;-79
2021/10/28 12:15:28;;;;;;;3.80;1.38;;;19.10;65.80;;;;;;4983709;28;20037;-83
2021/10/28 12:19:57;;;;;;;7.03;1.85;;;19.00;65.10;;;;;;4982903;28;20026;-81
2021/10/28 12:21:18;;;;;;;4.35;1.58;;;19.30;65.30;;;;;;4986811;28;20381;-81
2021/10/28 12:46:23;;;;;;;2.17;1.02;;;20.50;60.20;;;;;;4993466;28;20077;-82
2021/10/28 12:52:21;;;;;;;4.05;1.10;;;20.10;61.20;;;;;;4913860;29;20032;-81
2021/10/28 13:06:16;;;;;;;2.75;0.90;;;19.70;60.00;;;;;;4989231;28;20169;-81
2021/10/28 13:50:38;;;;;;;3.03;1.17;;;19.60;59.80;;;;;;4996184;28;20157;-81
2021/10/28 14:15:02;;;;;;;3.83;1.42;;;19.70;60.20;;;;;;4996567;28;20030;-81
2021/10/28 14:15:30;;;;;;;2.58;1.52;;;19.80;60.80;;;;;;4987793;28;20186;-82
2021/10/28 14:23:04;;;;;;;2.92;1.42;;;19.50;61.30;;;;;;4997344;28;20033;-82
2021/10/28 14:26:05;;;;;;;3.65;1.60;;;18.60;61.70;;;;;;4995700;28;20117;-81
2021/10/28 14:37:08;;;;;;;4.15;1.45;;;16.90;68.10;;;;;;4989128;28;20763;-80
2021/10/28 14:58:35;;;;;;;4.88;1.50;;;16.40;69.10;;;;;;4988781;28;20030;-81
2021/10/28 14:58:44;;;;;;;2.92;1.13;;;16.30;69.70;;;;;;4998621;28;20038;-80
2021/10/28 15:01:57;;;;;;;3.70;1.30;;;15.40;71.60;;;;;;4980081;28;20034;-80
2021/10/28 15:32:10;;;;;;;5.28;1.40;;;14.10;75.10;;;;;;4953653;28;20034;-65
2021/10/28 15:37:00;;;;;;;2.30;1.52;;;14.00;76.30;;;;;;4955684;28;20129;-64
2021/10/28 15:39:42;;;;;;;4.20;1.52;;;13.90;76.70;;;;;;4951603;28;20499;-64
2021/10/28 15:48:10;;;;;;;4.10;1.95;;;13.60;78.70;;;;;;4955041;28;20094;-64
2021/10/28 15:53:29;;;;;;;2.80;1.90;;;13.50;79.30;;;;;;4956356;28;20037;-64
2021/10/28 15:59:18;;;;;;;4.78;1.70;;;13.30;80.40;;;;;;4950651;28;20037;-64
2021/10/28 16:23:22;;;;;;;10.35;2.55;;;12.60;83.40;;;;;;4960162;28;20191;-64
2021/10/28 16:25:48;;;;;;;5.97;2.38;;;12.50;83.30;;;;;;4950106;28;20133;-64
2021/10/28 16:28:17;;;;;;;5.60;2.50;;;12.40;84.00;;;;;;4943144;28;20039;-64
2021/10/28 16:30:45;;;;;;;9.07;3.05;;;12.20;84.20;;;;;;4953401;28;20030;-64
2021/10/28 16:33:13;;;;;;;4.18;2.72;;;12.30;83.70;;;;;;4959139;28;20107;-64
2021/10/28 16:35:38;;;;;;;4.72;2.55;;;12.20;84.10;;;;;;4954611;28;20136;-64
2021/10/28 16:38:05;;;;;;;4.22;2.45;;;12.30;84.70;;;;;;4955898;28;20039;-64
2021/10/28 16:40:31;;;;;;;5.75;2.65;;;12.20;84.70;;;;;;4943115;28;20358;-63
2021/10/28 16:42:56;;;;;;;5.47;2.80;;;12.10;84.70;;;;;;4962268;28;20045;-64
2021/10/28 16:45:22;;;;;;;5.95;2.70;;;12.10;84.80;;;;;;4953479;28;20039;-64
2021/10/28 16:47:48;;;;;;;5.30;2.42;;;12.00;85.00;;;;;;4954397;28;20068;-64
2021/10/28 16:50:14;;;;;;;5.68;2.83;;;11.90;85.50;;;;;;4951187;28;20038;-63
2021/10/28 16:52:41;;;;;;;3.60;2.40;;;11.80;85.60;;;;;;4948236;28;20049;-64
2021/10/28 16:55:07;;;;;;;6.10;2.58;;;11.80;85.60;;;;;;4947015;28;20339;-64
2021/10/28 16:57:32;;;;;;;7.53;2.60;;;11.80;85.90;;;;;;4945237;28;20418;-64
2021/10/28 16:59:58;;;;;;;8.88;3.05;;;11.60;86.20;;;;;;4950890;28;20118;-64
2021/10/28 17:02:23;;;;;;;4.75;2.60;;;11.50;86.50;;;;;;4949001;28;20074;-64
2021/10/28 17:04:49;;;;;;;7.70;3.28;;;11.60;86.50;;;;;;4958165;28;20031;-64
2021/10/28 17:07:15;;;;;;;9.65;3.60;;;11.50;86.70;;;;;;4952782;28;20110;-64
2021/10/28 17:09:40;;;;;;;6.93;3.58;;;11.40;87.30;;;;;;4953733;28;20216;-63
2021/10/28 17:12:06;;;;;;;7.60;3.53;;;11.30;87.40;;;;;;4953753;28;20037;-63
2021/10/28 17:14:32;;;;;;;7.53;3.55;;;11.30;87.80;;;;;;4958949;28;20054;-64
2021/10/28 17:16:57;;;;;;;6.93;3.13;;;11.50;87.20;;;;;;4955571;28;20027;-63
2021/10/28 17:19:23;;;;;;;5.72;3.30;;;11.40;87.20;;;;;;4954441;28;20168;-64
2021/10/28 17:21:49;;;;;;;5.90;3.30;;;11.40;87.40;;;;;;4950981;28;20185;-64
2021/10/28 17:26:57;;;;;;;7.65;3.63;;;11.20;87.60;;;;;;4951136;28;20035;-64
2021/10/28 17:29:22;;;;;;;4.88;2.85;;;11.20;87.70;;;;;;4958028;28;20137;-64
2021/10/28 17:31:50;;;;;;;11.20;3.38;;;11.10;87.70;;;;;;4954416;28;20094;-64
2021/10/28 17:34:16;;;;;;;6.10;3.47;;;11.10;87.40;;;;;;4958261;28;20019;-64
2021/10/28 17:36:42;;;;;;;5.25;3.10;;;11.10;87.70;;;;;;4953182;28;20030;-63
2021/10/28 17:39:08;;;;;;;7.15;3.45;;;11.20;87.20;;;;;;4954411;28;20047;-63
2021/10/28 17:41:33;;;;;;;11.30;3.53;;;11.10;88.00;;;;;;4945818;28;20472;-63
2021/10/28 17:43:59;;;;;;;6.82;3.45;;;11.00;87.90;;;;;;4950693;28;20375;-64
2021/10/28 17:46:26;;;;;;;10.10;3.30;;;11.10;87.90;;;;;;4960157;28;20152;-64
2021/10/28 17:48:53;;;;;;;6.32;3.00;;;10.90;87.70;;;;;;4949820;28;20038;-64
2021/10/28 17:51:18;;;;;;;5.75;2.55;;;11.00;87.90;;;;;;4952178;28;20070;-64
2021/10/28 17:53:45;;;;;;;5.10;3.33;;;10.80;87.90;;;;;;4947197;28;20065;-64
2021/10/28 17:56:17;;;;;;;6.15;3.13;;;10.80;88.60;;;;;;4939781;28;20057;-63
2021/10/28 17:58:42;;;;;;;9.35;3.35;;;10.90;88.00;;;;;;4951441;28;20098;-63
2021/10/28 18:01:08;;;;;;;4.47;3.05;;;10.90;88.20;;;;;;4954045;28;20039;-64
2021/10/28 18:03:34;;;;;;;5.10;3.08;;;10.90;88.50;;;;;;4950234;28;20038;-64
2021/10/28 18:06:00;;;;;;;6.43;3.10;;;10.80;88.50;;;;;;4947055;28;20114;-64
2021/10/28 18:08:26;;;;;;;6.47;3.40;;;10.80;88.50;;;;;;4952254;28;20472;-64
2021/10/28 18:10:52;;;;;;;6.05;2.80;;;10.70;88.90;;;;;;4958814;28;20045;-64
2021/10/28 18:13:19;;;;;;;5.93;2.85;;;10.70;89.20;;;;;;4954708;28;20035;-64
2021/10/28 18:15:45;;;;;;;8.02;3.35;;;10.70;89.40;;;;;;4952806;28;20451;-64
2021/10/28 18:18:11;;;;;;;6.30;3.20;;;10.70;89.70;;;;;;4953243;28;20433;-64
2021/10/28 18:20:38;;;;;;;7.80;3.58;;;10.50;89.40;;;;;;4955924;28;20062;-64
2021/10/28 18:23:05;;;;;;;6.18;3.58;;;10.30;90.00;;;;;;4954311;28;20019;-64
2021/10/28 18:25:31;;;;;;;5.57;3.60;;;10.30;90.50;;;;;;4951945;28;20059;-64
2021/10/28 18:27:58;;;;;;;6.85;3.67;;;10.20;91.20;;;;;;4954807;28;20404;-64
2021/10/28 18:30:26;;;;;;;7.05;4.20;;;10.40;91.30;;;;;;4946027;28;20027;-64
2021/10/28 18:32:52;;;;;;;7.07;3.78;;;10.30;91.10;;;;;;4948521;28;20160;-64
2021/10/28 18:35:17;;;;;;;7.35;3.65;;;10.30;91.10;;;;;;4956388;28;20047;-65
2021/10/28 18:37:44;;;;;;;8.68;4.05;;;10.20;91.10;;;;;;4960001;28;20038;-64
2021/10/28 18:40:11;;;;;;;5.90;3.70;;;10.10;91.70;;;;;;4959311;28;20134;-64
2021/10/28 18:42:37;;;;;;;10.68;4.13;;;10.10;91.80;;;;;;4954695;28;20251;-64
2021/10/28 18:45:05;;;;;;;8.30;3.92;;;10.00;91.80;;;;;;4961286;28;20118;-64
2021/10/28 18:47:31;;;;;;;7.30;3.83;;;10.00;92.30;;;;;;4959109;28;20032;-64
2021/10/28 18:49:58;;;;;;;10.50;4.78;;;9.90;92.30;;;;;;4956562;28;20071;-64
2021/10/28 18:52:24;;;;;;;10.38;4.28;;;9.80;92.60;;;;;;4959617;28;20360;-64
2021/10/28 18:54:51;;;;;;;9.05;4.65;;;9.90;93.00;;;;;;4950730;28;20440;-64
2021/10/28 18:57:17;;;;;;;8.13;4.38;;;9.80;92.80;;;;;;4950366;28;20502;-64
2021/10/28 18:59:43;;;;;;;8.98;5.30;;;9.70;93.10;;;;;;4951971;28;20054;-64
2021/10/28 19:02:09;;;;;;;8.57;5.32;;;9.70;93.80;;;;;;4957622;28;20043;-64
2021/10/28 19:04:35;;;;;;;9.82;5.43;;;9.60;93.50;;;;;;4955394;28;20027;-64
2021/10/28 19:07:02;;;;;;;7.18;4.47;;;9.60;93.60;;;;;;4958467;28;20031;-63
2021/10/28 19:09:28;;;;;;;12.38;5.57;;;9.50;93.70;;;;;;4948570;28;20038;-64
2021/10/28 19:11:54;;;;;;;9.45;5.90;;;9.60;94.20;;;;;;4951315;28;20115;-64
2021/10/28 19:14:19;;;;;;;10.50;5.80;;;9.50;94.10;;;;;;4961746;28;20538;-64
2021/10/28 19:16:45;;;;;;;12.95;6.10;;;9.50;94.40;;;;;;4957391;28;20027;-65
2021/10/28 19:19:11;;;;;;;12.93;6.68;;;9.40;94.20;;;;;;4955252;28;20170;-64
2021/10/28 19:21:37;;;;;;;9.43;6.35;;;9.40;94.60;;;;;;4950543;28;20034;-64
2021/10/28 19:24:03;;;;;;;9.88;5.82;;;9.40;94.80;;;;;;4952683;28;20318;-64
2021/10/28 19:26:29;;;;;;;11.70;6.28;;;9.40;94.70;;;;;;4958363;28;20431;-65
2021/10/28 19:28:55;;;;;;;9.73;6.38;;;9.40;94.80;;;;;;4942907;28;20031;-65
2021/10/28 19:31:24;;;;;;;12.02;6.78;;;9.40;94.90;;;;;;4962278;28;20038;-65
2021/10/28 19:33:53;;;;;;;10.27;6.32;;;9.40;95.00;;;;;;4943518;28;20041;-64
2021/10/28 19:46:45;;;;;;;15.02;6.93;;;9.60;95.10;;;;;;4951271;28;20038;-65
2021/10/28 19:49:11;;;;;;;11.77;7.07;;;9.60;95.10;;;;;;4950691;28;20335;-64
2021/10/28 19:51:36;;;;;;;9.55;6.72;;;9.70;95.00;;;;;;4946631;28;20027;-64
2021/10/28 19:54:03;;;;;;;13.90;7.88;;;9.80;94.80;;;;;;4951754;28;20031;-64
2021/10/28 19:56:29;;;;;;;13.77;7.70;;;9.80;94.80;;;;;;4952649;28;20031;-64
2021/10/28 19:59:01;;;;;;;10.32;6.22;;;9.70;94.60;;;;;;4958513;28;20082;-64
2021/10/28 20:01:36;;;;;;;13.52;6.90;;;9.70;94.80;;;;;;4949737;28;20026;-64
2021/10/28 20:22:50;;;;;;;10.55;6.85;;;9.40;95.10;;;;;;4908007;28;20066;-64
2021/10/28 20:25:21;;;;;;;10.90;7.05;;;9.30;95.10;;;;;;4954258;28;20027;-64
2021/10/28 20:27:49;;;;;;;14.13;7.70;;;9.30;95.40;;;;;;4957284;28;20035;-64
2021/10/28 20:30:21;;;;;;;14.05;7.65;;;9.40;95.70;;;;;;4939198;28;20481;-64
2021/10/28 20:32:47;;;;;;;11.43;7.68;;;9.40;95.40;;;;;;4956593;28;20411;-64
2021/10/28 20:37:52;;;;;;;12.30;7.57;;;9.20;95.70;;;;;;4942251;28;20064;-65
2021/10/28 20:40:18;;;;;;;10.20;7.88;;;9.10;95.50;;;;;;4951914;28;20033;-64
2021/10/28 20:42:47;;;;;;;13.60;7.25;;;9.10;95.50;;;;;;4942362;28;20030;-64
2021/10/28 20:45:17;;;;;;;15.80;8.27;;;9.30;95.90;;;;;;4929804;28;20039;-64
2021/10/28 20:47:43;;;;;;;14.85;8.30;;;9.30;95.60;;;;;;4951672;28;20110;-64
2021/10/28 20:50:16;;;;;;;14.27;7.60;;;9.30;95.40;;;;;;4932104;28;20068;-63
2021/10/28 20:52:42;;;;;;;11.32;8.43;;;9.20;95.20;;;;;;4930413;28;20665;-65
2021/10/28 20:55:09;;;;;;;10.88;7.80;;;9.20;95.10;;;;;;4928522;28;20047;-64
2021/10/28 20:57:37;;;;;;;12.88;7.57;;;9.30;94.90;;;;;;4947649;28;20314;-64
2021/10/28 21:00:07;;;;;;;12.52;7.63;;;9.40;94.50;;;;;;4946081;28;20042;-64
2021/10/28 21:02:33;;;;;;;11.93;7.20;;;9.30;94.20;;;;;;4956483;28;20054;-64
2021/10/28 21:05:00;;;;;;;13.10;7.28;;;9.50;93.80;;;;;;4956943;28;20609;-65
2021/10/28 21:07:27;;;;;;;11.70;6.50;;;9.60;93.10;;;;;;4962943;28;20031;-64
2021/10/28 21:09:53;;;;;;;11.32;6.22;;;9.60;93.20;;;;;;4986692;23;20066;-74
2021/10/28 21:12:19;;;;;;;7.95;5.95;;;9.60;92.90;;;;;;4967175;28;20456;-74
2021/10/28 21:14:45;;;;;;;12.27;6.65;;;9.60;92.70;;;;;;4973472;28;20037;-74
2021/10/28 21:17:10;;;;;;;13.85;5.95;;;9.50;92.80;;;;;;4978948;28;20037;-74
2021/10/28 21:19:36;;;;;;;10.93;6.15;;;9.50;92.70;;;;;;4959908;28;20023;-74
2021/10/28 21:22:03;;;;;;;10.20;6.40;;;9.40;92.70;;;;;;4959664;28;20039;-74
2021/10/28 21:24:28;;;;;;;11.13;6.50;;;9.40;92.70;;;;;;4960077;28;20076;-73
2021/10/28 21:26:54;;;;;;;10.70;6.45;;;9.40;92.80;;;;;;4977266;28;20038;-73
2021/10/28 21:29:20;;;;;;;10.43;6.15;;;9.40;92.60;;;;;;4982891;28;20034;-74
2021/10/28 21:31:45;;;;;;;9.35;6.47;;;9.40;92.50;;;;;;4974888;28;20027;-74
2021/10/28 21:34:10;;;;;;;9.73;6.47;;;9.50;92.20;;;;;;4975106;28;20102;-73